sensor_id;sensor_type;location;lat;lon;timestamp;pressure;altitude;pressure_sealevel;temperature;humidity
17311;BME280;8773;43.300;0.394;2023-07-16T00:01:20;100061.94;;;18.88;73.04
17311;BME280;8773;43.300;0.394;2023-07-16T00:03:48;100054.22;;;18.51;74.24
17311;BME280;8773;43.300;0.394;2023-07-16T00:06:15;100055.44;;;18.83;73.48
17311;BME280;8773;43.300;0.394;2023-07-16T00:08:43;100052.13;;;18.81;73.19
17311;BME280;8773;43.300;0.394;2023-07-16T00:11:10;100042.34;;;18.93;73.11
17311;BME280;8773;43.300;0.394;2023-07-16T00:13:38;100050.53;;;19.06;72.64
17311;BME280;8773;43.300;0.394;2023-07-16T00:16:05;100045.13;;;19.13;71.96
17311;BME280;8773;43.300;0.394;2023-07-16T00:18:34;100053.94;;;19.28;71.44
17311;BME280;8773;43.300;0.394;2023-07-16T00:21:02;100052.50;;;19.39;71.23
17311;BME280;8773;43.300;0.394;2023-07-16T00:23:29;100036.00;;;19.27;71.09
17311;BME280;8773;43.300;0.394;2023-07-16T00:25:56;100044.66;;;18.89;72.77
17311;BME280;8773;43.300;0.394;2023-07-16T00:28:24;100045.91;;;18.87;73.49
17311;BME280;8773;43.300;0.394;2023-07-16T00:30:51;100045.75;;;19.08;72.67
17311;BME280;8773;43.300;0.394;2023-07-16T00:33:19;100032.47;;;19.26;71.40
17311;BME280;8773;43.300;0.394;2023-07-16T00:35:48;100021.22;;;19.23;72.12
17311;BME280;8773;43.300;0.394;2023-07-16T00:38:16;100032.69;;;19.25;71.59
17311;BME280;8773;43.300;0.394;2023-07-16T00:40:44;100040.75;;;19.05;71.76
17311;BME280;8773;43.300;0.394;2023-07-16T00:43:12;100030.94;;;19.04;71.86
17311;BME280;8773;43.300;0.394;2023-07-16T00:45:40;100029.22;;;18.90;72.30
17311;BME280;8773;43.300;0.394;2023-07-16T00:48:08;100019.50;;;19.09;72.08
17311;BME280;8773;43.300;0.394;2023-07-16T00:50:36;100022.22;;;19.09;72.05
17311;BME280;8773;43.300;0.394;2023-07-16T00:53:06;100025.09;;;19.00;72.31
17311;BME280;8773;43.300;0.394;2023-07-16T00:55:35;100027.81;;;19.00;72.40
17311;BME280;8773;43.300;0.394;2023-07-16T00:58:04;100024.53;;;19.12;71.44
17311;BME280;8773;43.300;0.394;2023-07-16T01:00:32;100009.25;;;18.84;72.28
17311;BME280;8773;43.300;0.394;2023-07-16T01:03:00;100012.47;;;18.60;73.00
17311;BME280;8773;43.300;0.394;2023-07-16T01:05:34;100019.78;;;18.66;73.12
17311;BME280;8773;43.300;0.394;2023-07-16T01:08:07;100012.56;;;18.80;72.47
17311;BME280;8773;43.300;0.394;2023-07-16T01:10:37;100010.16;;;18.57;72.93
17311;BME280;8773;43.300;0.394;2023-07-16T01:13:05;100019.31;;;18.56;73.60
17311;BME280;8773;43.300;0.394;2023-07-16T01:15:32;100008.38;;;18.71;72.78
17311;BME280;8773;43.300;0.394;2023-07-16T01:18:00;100004.56;;;18.24;74.70
17311;BME280;8773;43.300;0.394;2023-07-16T01:20:27;100013.75;;;18.29;74.31
17311;BME280;8773;43.300;0.394;2023-07-16T01:26:20;100000.81;;;17.90;76.41
17311;BME280;8773;43.300;0.394;2023-07-16T01:29:20;99990.56;;;18.14;75.33
17311;BME280;8773;43.300;0.394;2023-07-16T01:31:56;99994.78;;;18.23;75.36
17311;BME280;8773;43.300;0.394;2023-07-16T01:34:24;99992.81;;;18.38;74.79
17311;BME280;8773;43.300;0.394;2023-07-16T01:36:55;99989.53;;;18.49;74.41
17311;BME280;8773;43.300;0.394;2023-07-16T01:39:23;99983.63;;;18.32;74.67
17311;BME280;8773;43.300;0.394;2023-07-16T01:41:50;99978.22;;;18.32;75.04
17311;BME280;8773;43.300;0.394;2023-07-16T01:44:17;99972.09;;;18.58;74.09
17311;BME280;8773;43.300;0.394;2023-07-16T01:46:52;99971.50;;;18.63;74.32
17311;BME280;8773;43.300;0.394;2023-07-16T01:49:25;99976.03;;;18.56;74.34
17311;BME280;8773;43.300;0.394;2023-07-16T01:51:52;99967.22;;;18.82;73.26
17311;BME280;8773;43.300;0.394;2023-07-16T01:54:19;99966.34;;;18.75;73.42
17311;BME280;8773;43.300;0.394;2023-07-16T01:56:47;99970.13;;;18.87;73.07
17311;BME280;8773;43.300;0.394;2023-07-16T01:59:14;99960.13;;;18.81;72.99
17311;BME280;8773;43.300;0.394;2023-07-16T02:01:42;99964.31;;;18.83;73.20
17311;BME280;8773;43.300;0.394;2023-07-16T02:04:11;99964.22;;;18.63;73.94
17311;BME280;8773;43.300;0.394;2023-07-16T02:06:38;99961.22;;;18.45;74.39
17311;BME280;8773;43.300;0.394;2023-07-16T02:09:06;99959.50;;;18.31;75.44
17311;BME280;8773;43.300;0.394;2023-07-16T02:11:33;99960.22;;;18.53;74.45
17311;BME280;8773;43.300;0.394;2023-07-16T02:14:00;99955.88;;;18.58;74.60
17311;BME280;8773;43.300;0.394;2023-07-16T02:16:28;99959.84;;;18.21;75.37
17311;BME280;8773;43.300;0.394;2023-07-16T02:18:55;99958.41;;;18.25;75.92
17311;BME280;8773;43.300;0.394;2023-07-16T02:21:24;99957.78;;;18.23;75.78
17311;BME280;8773;43.300;0.394;2023-07-16T02:23:52;99955.41;;;18.48;75.14
17311;BME280;8773;43.300;0.394;2023-07-16T02:26:19;99960.47;;;18.58;74.57
17311;BME280;8773;43.300;0.394;2023-07-16T02:28:47;99956.38;;;18.75;74.29
17311;BME280;8773;43.300;0.394;2023-07-16T02:31:14;99955.72;;;18.73;74.12
17311;BME280;8773;43.300;0.394;2023-07-16T02:33:45;99957.97;;;18.63;74.53
17311;BME280;8773;43.300;0.394;2023-07-16T02:36:12;99959.69;;;18.71;73.60
17311;BME280;8773;43.300;0.394;2023-07-16T02:38:41;99960.06;;;18.67;74.24
17311;BME280;8773;43.300;0.394;2023-07-16T02:41:12;99953.59;;;18.55;74.44
17311;BME280;8773;43.300;0.394;2023-07-16T02:43:39;99956.59;;;18.32;75.46
17311;BME280;8773;43.300;0.394;2023-07-16T02:46:07;99958.19;;;18.20;76.42
17311;BME280;8773;43.300;0.394;2023-07-16T02:48:34;99962.09;;;18.52;75.18
17311;BME280;8773;43.300;0.394;2023-07-16T02:51:02;99949.47;;;18.66;74.71
17311;BME280;8773;43.300;0.394;2023-07-16T02:53:29;99951.31;;;18.59;74.24
17311;BME280;8773;43.300;0.394;2023-07-16T02:55:58;99954.47;;;18.69;73.99
17311;BME280;8773;43.300;0.394;2023-07-16T02:58:26;99959.50;;;18.79;73.77
17311;BME280;8773;43.300;0.394;2023-07-16T03:00:53;99965.50;;;18.74;73.78
17311;BME280;8773;43.300;0.394;2023-07-16T03:03:21;99959.13;;;18.41;74.75
17311;BME280;8773;43.300;0.394;2023-07-16T03:05:48;99949.19;;;18.48;74.74
17311;BME280;8773;43.300;0.394;2023-07-16T03:08:15;99954.84;;;18.18;75.78
17311;BME280;8773;43.300;0.394;2023-07-16T03:10:43;99949.03;;;18.21;75.63
17311;BME280;8773;43.300;0.394;2023-07-16T03:13:12;99945.84;;;18.46;74.99
17311;BME280;8773;43.300;0.394;2023-07-16T03:15:39;99947.09;;;18.50;74.64
17311;BME280;8773;43.300;0.394;2023-07-16T03:18:07;99951.59;;;18.29;75.09
17311;BME280;8773;43.300;0.394;2023-07-16T03:20:34;99943.41;;;18.16;75.84
17311;BME280;8773;43.300;0.394;2023-07-16T03:23:02;99947.16;;;17.81;77.21
17311;BME280;8773;43.300;0.394;2023-07-16T03:25:29;99941.56;;;18.23;75.94
17311;BME280;8773;43.300;0.394;2023-07-16T03:27:56;99949.50;;;18.31;75.35
17311;BME280;8773;43.300;0.394;2023-07-16T03:30:25;99946.72;;;18.53;74.74
17311;BME280;8773;43.300;0.394;2023-07-16T03:32:53;99952.19;;;18.25;75.67
17311;BME280;8773;43.300;0.394;2023-07-16T03:35:20;99950.47;;;18.17;75.48
17311;BME280;8773;43.300;0.394;2023-07-16T03:38:01;99951.84;;;18.00;76.02
17311;BME280;8773;43.300;0.394;2023-07-16T03:40:28;99949.56;;;18.03;75.78
17311;BME280;8773;43.300;0.394;2023-07-16T03:42:55;99953.81;;;18.19;75.15
17311;BME280;8773;43.300;0.394;2023-07-16T03:45:23;99947.38;;;18.20;75.05
17311;BME280;8773;43.300;0.394;2023-07-16T03:47:52;99949.72;;;18.30;75.00
17311;BME280;8773;43.300;0.394;2023-07-16T03:50:20;99953.38;;;18.16;75.47
17311;BME280;8773;43.300;0.394;2023-07-16T03:52:47;99940.84;;;18.08;75.58
17311;BME280;8773;43.300;0.394;2023-07-16T03:55:15;99932.59;;;17.82;76.14
17311;BME280;8773;43.300;0.394;2023-07-16T03:57:42;99946.84;;;17.69;77.03
17311;BME280;8773;43.300;0.394;2023-07-16T04:00:10;99942.53;;;17.75;77.15
17311;BME280;8773;43.300;0.394;2023-07-16T04:02:38;99950.03;;;17.79;76.98
17311;BME280;8773;43.300;0.394;2023-07-16T04:05:08;99946.69;;;17.77;77.18
17311;BME280;8773;43.300;0.394;2023-07-16T04:07:35;99946.84;;;17.97;76.23
17311;BME280;8773;43.300;0.394;2023-07-16T04:10:03;99950.34;;;17.63;77.44
17311;BME280;8773;43.300;0.394;2023-07-16T04:12:31;99953.72;;;18.06;75.57
17311;BME280;8773;43.300;0.394;2023-07-16T04:14:59;99958.50;;;18.04;75.70
17311;BME280;8773;43.300;0.394;2023-07-16T04:17:26;99955.19;;;18.02;75.92
17311;BME280;8773;43.300;0.394;2023-07-16T04:19:54;99968.84;;;17.94;76.22
17311;BME280;8773;43.300;0.394;2023-07-16T04:22:23;99956.03;;;18.02;75.85
17311;BME280;8773;43.300;0.394;2023-07-16T04:24:50;99962.22;;;18.03;75.66
17311;BME280;8773;43.300;0.394;2023-07-16T04:27:18;99970.97;;;17.98;76.14
17311;BME280;8773;43.300;0.394;2023-07-16T04:29:47;99969.50;;;17.96;76.39
17311;BME280;8773;43.300;0.394;2023-07-16T04:32:14;99963.50;;;18.00;76.04
17311;BME280;8773;43.300;0.394;2023-07-16T04:34:42;99964.44;;;18.21;75.43
17311;BME280;8773;43.300;0.394;2023-07-16T04:37:09;99963.22;;;18.30;75.16
17311;BME280;8773;43.300;0.394;2023-07-16T04:39:38;99962.72;;;18.13;75.06
17311;BME280;8773;43.300;0.394;2023-07-16T04:42:05;99966.88;;;18.16;75.38
17311;BME280;8773;43.300;0.394;2023-07-16T04:44:33;99961.72;;;18.21;75.18
17311;BME280;8773;43.300;0.394;2023-07-16T04:47:00;99967.47;;;18.46;74.48
17311;BME280;8773;43.300;0.394;2023-07-16T04:49:35;99966.38;;;18.33;74.62
17311;BME280;8773;43.300;0.394;2023-07-16T04:52:03;99960.63;;;18.50;74.25
17311;BME280;8773;43.300;0.394;2023-07-16T04:54:35;99964.59;;;18.54;74.01
17311;BME280;8773;43.300;0.394;2023-07-16T04:57:05;99961.00;;;18.47;74.19
17311;BME280;8773;43.300;0.394;2023-07-16T04:59:33;99968.22;;;18.33;74.81
17311;BME280;8773;43.300;0.394;2023-07-16T05:02:02;99966.41;;;18.47;74.15
17311;BME280;8773;43.300;0.394;2023-07-16T05:04:29;99962.97;;;18.66;73.58
17311;BME280;8773;43.300;0.394;2023-07-16T05:06:57;99964.66;;;18.67;73.47
17311;BME280;8773;43.300;0.394;2023-07-16T05:09:24;99979.09;;;18.40;74.00
17311;BME280;8773;43.300;0.394;2023-07-16T05:11:54;99970.59;;;18.08;75.28
17311;BME280;8773;43.300;0.394;2023-07-16T05:14:26;99971.81;;;18.06;75.78
17311;BME280;8773;43.300;0.394;2023-07-16T05:16:55;99971.78;;;18.33;75.05
17311;BME280;8773;43.300;0.394;2023-07-16T05:19:23;99973.91;;;18.10;75.67
17311;BME280;8773;43.300;0.394;2023-07-16T05:21:50;99986.03;;;18.21;75.15
17311;BME280;8773;43.300;0.394;2023-07-16T05:24:18;99975.19;;;18.14;75.27
17311;BME280;8773;43.300;0.394;2023-07-16T05:26:45;99976.63;;;18.10;75.57
17311;BME280;8773;43.300;0.394;2023-07-16T05:29:13;99988.84;;;17.72;76.34
17311;BME280;8773;43.300;0.394;2023-07-16T05:31:42;99983.72;;;17.83;76.53
17311;BME280;8773;43.300;0.394;2023-07-16T05:34:10;99990.06;;;18.31;75.21
17311;BME280;8773;43.300;0.394;2023-07-16T05:36:37;99989.16;;;18.18;75.21
17311;BME280;8773;43.300;0.394;2023-07-16T05:39:05;99985.31;;;17.99;75.95
17311;BME280;8773;43.300;0.394;2023-07-16T05:41:32;99987.50;;;18.58;74.42
17311;BME280;8773;43.300;0.394;2023-07-16T05:44:00;99977.97;;;18.68;73.43
17311;BME280;8773;43.300;0.394;2023-07-16T05:46:27;99991.34;;;18.83;73.06
17311;BME280;8773;43.300;0.394;2023-07-16T05:48:56;99977.53;;;19.65;71.47
17311;BME280;8773;43.300;0.394;2023-07-16T05:51:24;99980.47;;;20.61;67.77
17311;BME280;8773;43.300;0.394;2023-07-16T05:53:51;99971.31;;;21.57;65.50
17311;BME280;8773;43.300;0.394;2023-07-16T05:56:19;99970.91;;;22.03;63.77
17311;BME280;8773;43.300;0.394;2023-07-16T05:58:46;99969.63;;;23.09;60.84
17311;BME280;8773;43.300;0.394;2023-07-16T06:01:14;99970.41;;;23.39;58.37
17311;BME280;8773;43.300;0.394;2023-07-16T06:03:41;99967.38;;;24.17;57.27
17311;BME280;8773;43.300;0.394;2023-07-16T06:06:10;99966.81;;;24.04;56.39
17311;BME280;8773;43.300;0.394;2023-07-16T06:08:38;99966.53;;;24.80;54.67
17311;BME280;8773;43.300;0.394;2023-07-16T06:11:05;99963.28;;;24.55;54.66
17311;BME280;8773;43.300;0.394;2023-07-16T06:13:33;99968.41;;;25.20;53.33
17311;BME280;8773;43.300;0.394;2023-07-16T06:16:00;99965.94;;;25.35;52.27
17311;BME280;8773;43.300;0.394;2023-07-16T06:18:28;99961.75;;;26.16;51.26
17311;BME280;8773;43.300;0.394;2023-07-16T06:20:55;99971.28;;;25.75;49.77
17311;BME280;8773;43.300;0.394;2023-07-16T06:23:24;99962.88;;;26.37;49.75
17311;BME280;8773;43.300;0.394;2023-07-16T06:25:54;99967.28;;;27.09;48.81
17311;BME280;8773;43.300;0.394;2023-07-16T06:28:21;99970.09;;;27.19;47.11
17311;BME280;8773;43.300;0.394;2023-07-16T06:30:49;99969.31;;;26.09;48.40
17311;BME280;8773;43.300;0.394;2023-07-16T06:33:16;99968.72;;;26.07;49.75
17311;BME280;8773;43.300;0.394;2023-07-16T06:35:45;99969.69;;;26.35;47.60
17311;BME280;8773;43.300;0.394;2023-07-16T06:38:12;99967.66;;;26.69;46.79
17311;BME280;8773;43.300;0.394;2023-07-16T06:40:46;99957.41;;;27.08;47.75
17311;BME280;8773;43.300;0.394;2023-07-16T06:43:14;99964.16;;;27.91;45.86
17311;BME280;8773;43.300;0.394;2023-07-16T06:45:42;99960.34;;;27.97;44.87
17311;BME280;8773;43.300;0.394;2023-07-16T06:48:09;99962.72;;;28.26;45.25
17311;BME280;8773;43.300;0.394;2023-07-16T06:50:37;99961.59;;;28.79;44.25
17311;BME280;8773;43.300;0.394;2023-07-16T06:53:04;99962.41;;;28.69;42.07
17311;BME280;8773;43.300;0.394;2023-07-16T06:55:32;99969.88;;;28.99;41.95
17311;BME280;8773;43.300;0.394;2023-07-16T06:58:01;99969.44;;;29.48;40.83
17311;BME280;8773;43.300;0.394;2023-07-16T07:00:29;99968.06;;;29.61;40.90
17311;BME280;8773;43.300;0.394;2023-07-16T07:02:56;99973.59;;;28.63;40.26
17311;BME280;8773;43.300;0.394;2023-07-16T07:05:24;99972.63;;;28.94;41.74
17311;BME280;8773;43.300;0.394;2023-07-16T07:07:51;99963.09;;;29.78;39.80
17311;BME280;8773;43.300;0.394;2023-07-16T07:10:19;99963.66;;;29.65;40.11
17311;BME280;8773;43.300;0.394;2023-07-16T07:12:46;99961.97;;;30.04;37.81
17311;BME280;8773;43.300;0.394;2023-07-16T07:15:15;99962.81;;;29.54;38.48
17311;BME280;8773;43.300;0.394;2023-07-16T07:17:42;99958.41;;;29.99;38.32
17311;BME280;8773;43.300;0.394;2023-07-16T07:20:11;99965.31;;;29.56;38.92
17311;BME280;8773;43.300;0.394;2023-07-16T07:22:39;99954.03;;;30.67;37.12
17311;BME280;8773;43.300;0.394;2023-07-16T07:25:07;99959.56;;;30.62;38.59
17311;BME280;8773;43.300;0.394;2023-07-16T07:27:35;99957.03;;;29.86;37.23
17311;BME280;8773;43.300;0.394;2023-07-16T07:30:02;99947.09;;;30.00;38.52
17311;BME280;8773;43.300;0.394;2023-07-16T07:32:31;99954.78;;;30.88;37.02
17311;BME280;8773;43.300;0.394;2023-07-16T07:34:59;99947.28;;;30.99;36.58
17311;BME280;8773;43.300;0.394;2023-07-16T07:37:29;99954.38;;;31.05;35.51
17311;BME280;8773;43.300;0.394;2023-07-16T07:39:58;99955.13;;;29.56;37.67
17311;BME280;8773;43.300;0.394;2023-07-16T07:42:26;99948.03;;;30.55;36.33
17311;BME280;8773;43.300;0.394;2023-07-16T07:44:57;99946.31;;;31.53;34.71
17311;BME280;8773;43.300;0.394;2023-07-16T07:47:24;99941.78;;;31.96;35.59
17311;BME280;8773;43.300;0.394;2023-07-16T07:49:54;99949.66;;;32.07;33.96
17311;BME280;8773;43.300;0.394;2023-07-16T07:52:26;99944.03;;;32.18;33.84
17311;BME280;8773;43.300;0.394;2023-07-16T07:54:54;99942.19;;;32.56;34.68
17311;BME280;8773;43.300;0.394;2023-07-16T07:57:21;99934.03;;;31.40;33.50
17311;BME280;8773;43.300;0.394;2023-07-16T07:59:51;99938.63;;;30.61;34.88
17311;BME280;8773;43.300;0.394;2023-07-16T08:02:19;99935.44;;;30.29;36.11
17311;BME280;8773;43.300;0.394;2023-07-16T08:04:46;99939.88;;;28.87;37.63
17311;BME280;8773;43.300;0.394;2023-07-16T08:07:15;99931.66;;;28.20;39.73
17311;BME280;8773;43.300;0.394;2023-07-16T08:09:43;99931.56;;;27.63;40.32
17311;BME280;8773;43.300;0.394;2023-07-16T08:12:10;99944.09;;;26.29;43.47
17311;BME280;8773;43.300;0.394;2023-07-16T08:14:41;99943.53;;;26.05;44.27
17311;BME280;8773;43.300;0.394;2023-07-16T08:17:09;99953.38;;;24.77;47.24
17311;BME280;8773;43.300;0.394;2023-07-16T08:19:37;99953.50;;;24.31;47.82
17311;BME280;8773;43.300;0.394;2023-07-16T08:22:05;99945.47;;;24.92;47.22
17311;BME280;8773;43.300;0.394;2023-07-16T08:24:34;99941.41;;;25.57;45.89
17311;BME280;8773;43.300;0.394;2023-07-16T08:27:01;99932.41;;;24.94;44.49
17311;BME280;8773;43.300;0.394;2023-07-16T08:29:29;99932.50;;;24.71;44.16
17311;BME280;8773;43.300;0.394;2023-07-16T08:31:56;99931.13;;;23.58;46.88
17311;BME280;8773;43.300;0.394;2023-07-16T08:34:24;99933.84;;;23.82;46.04
17311;BME280;8773;43.300;0.394;2023-07-16T08:36:51;99933.25;;;23.80;47.22
17311;BME280;8773;43.300;0.394;2023-07-16T08:39:19;99923.28;;;24.09;46.00
17311;BME280;8773;43.300;0.394;2023-07-16T08:41:49;99928.69;;;24.72;45.29
17311;BME280;8773;43.300;0.394;2023-07-16T08:44:17;99932.53;;;24.59;45.72
17311;BME280;8773;43.300;0.394;2023-07-16T08:46:45;99938.75;;;23.15;48.86
17311;BME280;8773;43.300;0.394;2023-07-16T08:49:12;99926.69;;;23.34;49.37
17311;BME280;8773;43.300;0.394;2023-07-16T08:51:40;99927.38;;;24.35;47.43
17311;BME280;8773;43.300;0.394;2023-07-16T08:54:08;99924.19;;;24.26;47.28
17311;BME280;8773;43.300;0.394;2023-07-16T08:56:36;99926.13;;;24.54;46.97
17311;BME280;8773;43.300;0.394;2023-07-16T08:59:05;99933.19;;;24.78;45.99
17311;BME280;8773;43.300;0.394;2023-07-16T09:01:32;99927.63;;;24.73;45.24
17311;BME280;8773;43.300;0.394;2023-07-16T09:04:00;99929.00;;;24.87;44.98
17311;BME280;8773;43.300;0.394;2023-07-16T09:06:27;99934.63;;;24.17;46.48
17311;BME280;8773;43.300;0.394;2023-07-16T09:08:54;99936.53;;;24.28;47.44
17311;BME280;8773;43.300;0.394;2023-07-16T09:11:22;99929.41;;;24.16;46.83
17311;BME280;8773;43.300;0.394;2023-07-16T09:13:50;99933.66;;;24.47;47.59
17311;BME280;8773;43.300;0.394;2023-07-16T09:16:19;99931.88;;;24.98;45.43
17311;BME280;8773;43.300;0.394;2023-07-16T09:18:49;99939.50;;;25.24;45.75
17311;BME280;8773;43.300;0.394;2023-07-16T09:21:17;99931.59;;;25.95;45.09
17311;BME280;8773;43.300;0.394;2023-07-16T09:23:44;99940.91;;;24.81;44.94
17311;BME280;8773;43.300;0.394;2023-07-16T09:26:11;99936.41;;;26.04;46.23
17311;BME280;8773;43.300;0.394;2023-07-16T09:28:39;99931.13;;;25.47;43.87
17311;BME280;8773;43.300;0.394;2023-07-16T09:31:07;99939.53;;;24.96;45.29
17311;BME280;8773;43.300;0.394;2023-07-16T09:33:38;99941.44;;;24.55;45.29
17311;BME280;8773;43.300;0.394;2023-07-16T09:36:06;99936.22;;;24.53;45.56
17311;BME280;8773;43.300;0.394;2023-07-16T09:38:34;99926.25;;;24.87;45.08
17311;BME280;8773;43.300;0.394;2023-07-16T09:41:05;99943.06;;;25.91;43.83
17311;BME280;8773;43.300;0.394;2023-07-16T09:43:33;99932.59;;;26.05;43.36
17311;BME280;8773;43.300;0.394;2023-07-16T09:46:00;99931.03;;;25.92;42.21
17311;BME280;8773;43.300;0.394;2023-07-16T09:48:28;99920.47;;;26.01;42.28
17311;BME280;8773;43.300;0.394;2023-07-16T09:50:57;99940.38;;;24.56;45.45
17311;BME280;8773;43.300;0.394;2023-07-16T09:53:25;99938.84;;;25.05;44.20
17311;BME280;8773;43.300;0.394;2023-07-16T09:55:55;99945.25;;;25.73;42.51
17311;BME280;8773;43.300;0.394;2023-07-16T09:58:23;99938.75;;;24.83;44.00
17311;BME280;8773;43.300;0.394;2023-07-16T10:00:52;99944.94;;;24.79;44.14
17311;BME280;8773;43.300;0.394;2023-07-16T10:03:19;99941.38;;;24.78;44.68
17311;BME280;8773;43.300;0.394;2023-07-16T10:05:47;99947.22;;;25.27;45.75
17311;BME280;8773;43.300;0.394;2023-07-16T10:08:17;99929.50;;;25.80;44.20
17311;BME280;8773;43.300;0.394;2023-07-16T10:10:46;99940.25;;;25.53;43.71
17311;BME280;8773;43.300;0.394;2023-07-16T10:13:14;99936.88;;;25.29;44.31
17311;BME280;8773;43.300;0.394;2023-07-16T10:15:51;99933.44;;;25.55;43.98
17311;BME280;8773;43.300;0.394;2023-07-16T10:18:25;99931.00;;;25.37;44.24
17311;BME280;8773;43.300;0.394;2023-07-16T10:20:53;99934.69;;;24.86;44.28
17311;BME280;8773;43.300;0.394;2023-07-16T10:23:24;99946.50;;;24.46;46.21
17311;BME280;8773;43.300;0.394;2023-07-16T10:25:58;99948.59;;;24.84;47.33
17311;BME280;8773;43.300;0.394;2023-07-16T10:28:26;99929.63;;;25.06;45.38
17311;BME280;8773;43.300;0.394;2023-07-16T10:30:53;99931.41;;;25.79;44.87
17311;BME280;8773;43.300;0.394;2023-07-16T10:33:21;99931.59;;;26.33;43.03
17311;BME280;8773;43.300;0.394;2023-07-16T10:35:48;99928.91;;;27.09;42.17
17311;BME280;8773;43.300;0.394;2023-07-16T10:38:16;99923.50;;;26.43;42.21
17311;BME280;8773;43.300;0.394;2023-07-16T10:40:46;99940.38;;;26.35;42.85
17311;BME280;8773;43.300;0.394;2023-07-16T10:43:14;99936.75;;;26.51;41.78
17311;BME280;8773;43.300;0.394;2023-07-16T10:45:42;99913.47;;;26.76;41.70
17311;BME280;8773;43.300;0.394;2023-07-16T10:48:09;99923.72;;;27.44;39.82
17311;BME280;8773;43.300;0.394;2023-07-16T10:50:37;99933.56;;;26.60;40.92
17311;BME280;8773;43.300;0.394;2023-07-16T10:53:04;99927.66;;;26.46;43.46
17311;BME280;8773;43.300;0.394;2023-07-16T10:55:31;99925.88;;;26.35;41.49
17311;BME280;8773;43.300;0.394;2023-07-16T10:58:05;99927.31;;;26.20;42.01
17311;BME280;8773;43.300;0.394;2023-07-16T11:00:38;99929.56;;;26.23;42.67
17311;BME280;8773;43.300;0.394;2023-07-16T11:03:09;99928.09;;;26.16;42.05
17311;BME280;8773;43.300;0.394;2023-07-16T11:05:37;99926.88;;;25.90;42.73
17311;BME280;8773;43.300;0.394;2023-07-16T11:08:05;99924.91;;;26.68;43.64
17311;BME280;8773;43.300;0.394;2023-07-16T11:10:32;99926.81;;;26.67;41.44
17311;BME280;8773;43.300;0.394;2023-07-16T11:12:59;99929.75;;;27.09;42.69
17311;BME280;8773;43.300;0.394;2023-07-16T11:15:31;99926.03;;;26.72;41.43
17311;BME280;8773;43.300;0.394;2023-07-16T11:18:00;99924.03;;;26.62;42.73
17311;BME280;8773;43.300;0.394;2023-07-16T11:20:28;99924.78;;;26.57;41.71
17311;BME280;8773;43.300;0.394;2023-07-16T11:22:57;99917.72;;;26.40;42.23
17311;BME280;8773;43.300;0.394;2023-07-16T11:25:25;99912.19;;;25.96;43.99
17311;BME280;8773;43.300;0.394;2023-07-16T11:27:55;99912.69;;;25.71;44.10
17311;BME280;8773;43.300;0.394;2023-07-16T11:30:23;99906.63;;;26.08;45.04
17311;BME280;8773;43.300;0.394;2023-07-16T11:32:52;99909.50;;;26.40;43.28
17311;BME280;8773;43.300;0.394;2023-07-16T11:35:20;99905.16;;;26.66;44.08
17311;BME280;8773;43.300;0.394;2023-07-16T11:37:48;99901.94;;;26.74;43.69
17311;BME280;8773;43.300;0.394;2023-07-16T11:40:16;99909.38;;;25.91;44.23
17311;BME280;8773;43.300;0.394;2023-07-16T11:42:44;99906.97;;;25.73;45.20
17311;BME280;8773;43.300;0.394;2023-07-16T11:45:16;99901.63;;;25.49;46.07
17311;BME280;8773;43.300;0.394;2023-07-16T11:47:44;99892.28;;;25.79;45.71
17311;BME280;8773;43.300;0.394;2023-07-16T11:50:13;99896.81;;;24.89;46.98
17311;BME280;8773;43.300;0.394;2023-07-16T11:52:41;99878.88;;;25.10;47.08
17311;BME280;8773;43.300;0.394;2023-07-16T11:55:08;99880.97;;;25.37;47.11
17311;BME280;8773;43.300;0.394;2023-07-16T11:57:36;99886.31;;;25.48;46.92
17311;BME280;8773;43.300;0.394;2023-07-16T12:00:05;99883.94;;;25.35;46.07
17311;BME280;8773;43.300;0.394;2023-07-16T12:02:32;99873.00;;;25.18;47.51
17311;BME280;8773;43.300;0.394;2023-07-16T12:05:01;99871.47;;;25.78;46.71
17311;BME280;8773;43.300;0.394;2023-07-16T12:07:35;99886.56;;;26.02;44.38
17311;BME280;8773;43.300;0.394;2023-07-16T12:10:04;99887.66;;;26.45;45.71
17311;BME280;8773;43.300;0.394;2023-07-16T12:12:33;99883.41;;;26.32;44.81
17311;BME280;8773;43.300;0.394;2023-07-16T12:15:00;99876.25;;;26.09;43.69
17311;BME280;8773;43.300;0.394;2023-07-16T12:17:28;99867.19;;;26.79;44.14
17311;BME280;8773;43.300;0.394;2023-07-16T12:19:56;99863.28;;;26.43;43.27
17311;BME280;8773;43.300;0.394;2023-07-16T12:22:24;99869.75;;;27.18;43.05
17311;BME280;8773;43.300;0.394;2023-07-16T12:24:53;99871.44;;;26.16;43.76
17311;BME280;8773;43.300;0.394;2023-07-16T12:27:21;99875.22;;;25.93;44.00
17311;BME280;8773;43.300;0.394;2023-07-16T12:29:48;99863.31;;;26.97;42.60
17311;BME280;8773;43.300;0.394;2023-07-16T12:32:16;99865.31;;;27.44;42.17
17311;BME280;8773;43.300;0.394;2023-07-16T12:34:43;99876.00;;;26.81;42.91
17311;BME280;8773;43.300;0.394;2023-07-16T12:37:11;99862.84;;;27.84;40.52
17311;BME280;8773;43.300;0.394;2023-07-16T12:39:39;99865.69;;;27.52;41.35
17311;BME280;8773;43.300;0.394;2023-07-16T12:42:08;99872.19;;;26.34;42.77
17311;BME280;8773;43.300;0.394;2023-07-16T12:44:35;99858.00;;;26.37;43.66
17311;BME280;8773;43.300;0.394;2023-07-16T12:47:03;99858.38;;;25.80;44.57
17311;BME280;8773;43.300;0.394;2023-07-16T12:49:30;99857.41;;;26.56;43.62
17311;BME280;8773;43.300;0.394;2023-07-16T12:51:58;99863.16;;;26.11;44.78
17311;BME280;8773;43.300;0.394;2023-07-16T12:54:25;99864.75;;;26.07;44.06
17311;BME280;8773;43.300;0.394;2023-07-16T12:56:53;99865.75;;;26.45;43.80
17311;BME280;8773;43.300;0.394;2023-07-16T12:59:22;99848.53;;;27.35;42.59
17311;BME280;8773;43.300;0.394;2023-07-16T13:01:49;99845.50;;;27.74;42.13
17311;BME280;8773;43.300;0.394;2023-07-16T13:04:17;99849.81;;;27.65;41.52
17311;BME280;8773;43.300;0.394;2023-07-16T13:06:44;99838.66;;;28.44;41.72
17311;BME280;8773;43.300;0.394;2023-07-16T13:09:12;99842.59;;;27.96;39.97
17311;BME280;8773;43.300;0.394;2023-07-16T13:11:39;99853.63;;;27.59;41.04
17311;BME280;8773;43.300;0.394;2023-07-16T13:14:07;99859.69;;;26.65;41.96
17311;BME280;8773;43.300;0.394;2023-07-16T13:16:36;99865.16;;;26.65;42.46
17311;BME280;8773;43.300;0.394;2023-07-16T13:19:03;99860.31;;;25.84;43.89